Aviation Digital Data Service (ADDS)

Output produced by METARs form (0141 UTC 20 April 2014)
found at http://aviationweather.gov/adds/metars/
 
KART 192334Z 2000/2024 22005KT P6SM FEW200 
     FM200200 VRB03KT P6SM FEW200 
     FM201000 16004KT P6SM SCT140 
     FM201500 21005KT P6SM SCT140